Time;durP1;ratioP1;P1;durP2;ratioP2;P2;SDS_P1;SDS_P2;PMS_P1;PMS_P2;Temp;Humidity;BMP_temperature;BMP_pressure;BME280_temperature;BME280_humidity;BME280_pressure;Samples;Min_cycle;Max_cycle;Signal;HPM_P1;HPM_P2
2021/06/29 00:02:13;;;;;;;;;;;;;;;;;;;;;
2021/06/29 00:36:27;;;;;;;17.70;15.95;;;;;;;18.62;64.74;100323.30;128715;1098;22380;-88
2021/06/29 00:40:39;;;;;;;17.43;15.30;;;;;;;18.57;65.01;100331.19;128759;1098;22402;-88
2021/06/29 00:43:33;;;;;;;19.37;16.50;;;;;;;18.54;64.86;100331.63;128256;1101;22394;-88
2021/06/29 00:57:17;;;;;;;17.43;15.58;;;;;;;18.44;65.82;100316.08;128603;1096;24218;-87
2021/06/29 01:00:53;;;;;;;;;;;;;;;;;;;;;
2021/06/29 01:10:05;;;;;;;17.18;15.48;;;;;;;18.41;66.81;100297.80;128640;1098;22401;-88
2021/06/29 01:13:27;;;;;;;17.73;15.43;;;;;;;18.36;66.54;100292.30;128467;1098;24267;-90
2021/06/29 01:16:33;;;;;;;17.75;16.00;;;;;;;18.34;66.78;100303.20;128517;1098;22442;-88
2021/06/29 01:23:38;;;;;;;17.45;15.80;;;;;;;18.30;66.93;100299.34;128737;1097;22407;-88
2021/06/29 01:36:39;;;;;;;18.55;16.68;;;;;;;18.11;66.78;100293.13;128629;1098;22366;-89
2021/06/29 01:40:28;;;;;;;17.23;15.58;;;;;;;18.08;66.68;100290.88;128662;1098;22407;-87
2021/06/29 01:47:34;;;;;;;19.00;17.20;;;;;;;18.00;66.93;100290.36;128540;1098;22825;-89
2021/06/29 01:51:15;;;;;;;18.23;16.43;;;;;;;17.97;67.13;100280.09;128477;1098;22362;-85
2021/06/29 01:54:48;;;;;;;19.15;17.18;;;;;;;17.94;67.09;100285.88;128332;1101;22503;-87
2021/06/29 01:58:39;;;;;;;20.23;18.15;;;;;;;17.91;67.10;100276.44;128362;1101;22386;-86
2021/06/29 02:01:54;;;;;;;20.78;16.25;;;;;;;17.90;66.53;100271.31;128320;1101;22461;-85
2021/06/29 02:04:47;;;;;;;20.15;18.13;;;;;;;17.92;66.84;100279.92;127911;1101;22442;-86
2021/06/29 02:08:11;;;;;;;17.73;15.28;;;;;;;17.90;66.33;100287.35;127933;1101;24272;-87
2021/06/29 02:11:37;;;;;;;18.50;16.43;;;;;;;17.79;67.10;100278.16;127947;1101;22395;-85
2021/06/29 02:14:43;;;;;;;19.43;17.05;;;;;;;17.74;67.45;100270.77;128614;1096;22389;-86
2021/06/29 02:18:06;;;;;;;19.23;17.13;;;;;;;17.75;67.34;100280.42;128440;1098;22387;-86
2021/06/29 02:22:36;;;;;;;19.60;17.63;;;;;;;17.73;67.50;100274.49;128365;1098;22389;-87
2021/06/29 02:36:09;;;;;;;18.98;16.93;;;;;;;17.67;68.04;100278.02;128622;1098;22706;-89
2021/06/29 02:39:28;;;;;;;20.52;16.10;;;;;;;17.64;67.64;100279.27;128682;1098;22381;-85
2021/06/29 02:43:22;;;;;;;20.52;17.38;;;;;;;17.65;67.51;100290.77;128602;1098;22434;-87
2021/06/29 02:46:46;;;;;;;20.10;16.75;;;;;;;17.63;67.66;100282.98;128599;1098;22467;-89
2021/06/29 02:53:50;;;;;;;18.95;16.80;;;;;;;17.59;67.69;100279.11;128775;1097;22379;-86
2021/06/29 02:57:14;;;;;;;21.80;17.73;;;;;;;17.59;67.89;100270.25;128692;1098;22372;-89
2021/06/29 03:00:44;;;;;;;19.50;17.50;;;;;;;17.60;67.70;100270.05;128460;1098;24544;-88
2021/06/29 03:10:40;;;;;;;17.70;15.93;;;;;;;17.40;66.98;100267.50;128852;1098;23155;-89
2021/06/29 03:20:45;;;;;;;18.35;16.38;;;;;;;17.22;67.14;100275.39;128534;1098;22455;-87
2021/06/29 03:24:02;;;;;;;22.83;18.13;;;;;;;17.17;67.33;100277.90;128742;1098;22376;-86
2021/06/29 03:33:48;;;;;;;;;;;;;;;;;;;;;
2021/06/29 03:37:02;;;;;;;;;;;;;;;;;;;;;
2021/06/29 03:40:06;;;;;;;;;;;;;;;;;;;;;
2021/06/29 03:50:02;;;;;;;18.85;16.88;;;;;;;17.22;67.62;100279.92;128778;1097;22938;-88
2021/06/29 03:53:07;;;;;;;18.98;16.98;;;;;;;17.29;67.69;100286.85;128835;1098;23171;-87
2021/06/29 03:59:50;;;;;;;21.40;17.80;;;;;;;17.45;67.39;100284.73;128836;1098;22821;-88
2021/06/29 04:03:11;;;;;;;17.08;15.38;;;;;;;17.58;67.32;100284.66;128619;1098;22760;-85
2021/06/29 04:10:18;;;;;;;19.00;15.28;;;;;;;17.82;67.05;100291.91;128837;1098;22924;-90
2021/06/29 04:13:26;;;;;;;18.75;16.98;;;;;;;17.96;66.70;100286.45;128881;1098;22356;-87
2021/06/29 04:23:14;;;;;;;24.47;16.33;;;;;;;18.38;66.03;100286.72;128725;1098;23266;-89
2021/06/29 04:26:09;;;;;;;19.28;17.28;;;;;;;18.50;65.69;100282.30;128701;1098;22368;-87
2021/06/29 04:29:36;;;;;;;18.53;16.58;;;;;;;18.64;65.78;100277.62;128556;1098;22385;-86
2021/06/29 04:35:20;;;;;;;19.87;17.13;;;;;;;18.96;64.61;100271.10;128338;1098;22424;-86
2021/06/29 04:38:36;;;;;;;17.65;16.03;;;;;;;19.08;64.64;100273.82;128462;1098;22929;-87
2021/06/29 04:41:53;;;;;;;18.98;17.15;;;;;;;19.22;63.86;100277.14;128529;1098;22461;-86
2021/06/29 04:44:44;;;;;;;23.63;18.18;;;;;;;19.35;63.59;100270.80;128469;1098;22374;-85
2021/06/29 04:48:17;;;;;;;19.58;17.65;;;;;;;19.52;63.43;100267.23;128826;1098;22382;-87
2021/06/29 04:54:43;;;;;;;19.25;17.40;;;;;;;19.94;62.49;100286.02;128744;1098;22418;-88
2021/06/29 04:58:16;;;;;;;;;;;;;;;;;;;;;
2021/06/29 05:05:14;;;;;;;22.05;19.95;;;;;;;20.66;60.34;100285.02;128598;1101;24530;-88
2021/06/29 05:08:08;;;;;;;;;;;;;;;;;;;;;
2021/06/29 05:14:26;;;;;;;21.13;19.08;;;;;;;21.37;58.96;100283.77;128638;1098;22385;-80
2021/06/29 05:16:56;;;;;;;22.43;20.35;;;;;;;21.60;58.27;100295.47;127980;1098;22398;-77
2021/06/29 05:19:26;;;;;;;20.43;18.43;;;;;;;21.76;57.73;100288.46;127991;1098;22386;-77
2021/06/29 05:21:55;;;;;;;19.50;17.70;;;;;;;21.89;57.47;100290.84;128019;1098;22382;-77
2021/06/29 05:24:28;;;;;;;19.03;17.00;;;;;;;22.03;56.85;100294.86;128025;1098;22398;-77
2021/06/29 05:26:58;;;;;;;19.90;15.85;;;;;;;22.17;56.31;100292.67;127948;1101;22395;-77
2021/06/29 05:29:28;;;;;;;18.93;17.13;;;;;;;22.35;56.21;100274.63;127962;1101;22404;-78
2021/06/29 05:31:57;;;;;;;19.00;16.30;;;;;;;22.54;56.05;100274.09;127952;1100;24536;-76
2021/06/29 05:34:27;;;;;;;17.40;15.68;;;;;;;22.79;55.47;100272.79;127569;1101;22423;-77
2021/06/29 05:36:57;;;;;;;17.80;15.97;;;;;;;23.01;54.85;100273.64;127526;1102;22457;-77
2021/06/29 05:39:26;;;;;;;19.85;17.88;;;;;;;23.29;54.46;100279.05;127547;1101;22404;-77
2021/06/29 05:41:56;;;;;;;19.87;15.80;;;;;;;23.63;53.97;100269.70;127538;1101;22399;-77
2021/06/29 05:44:26;;;;;;;19.90;16.48;;;;;;;24.03;53.52;100270.33;127582;1101;22406;-77
2021/06/29 05:46:57;;;;;;;23.20;16.10;;;;;;;24.48;52.92;100269.01;127535;1101;22504;-78
2021/06/29 05:49:27;;;;;;;18.25;15.28;;;;;;;24.91;52.20;100265.15;127952;1101;22564;-79
2021/06/29 05:51:56;;;;;;;16.88;14.23;;;;;;;25.34;51.24;100269.35;127573;1100;22410;-76
2021/06/29 05:54:26;;;;;;;14.78;13.28;;;;;;;25.80;50.04;100263.21;127925;1101;22423;-77
2021/06/29 05:56:56;;;;;;;19.35;14.70;;;;;;;26.24;49.12;100263.42;127632;1101;24244;-79
2021/06/29 05:59:25;;;;;;;16.13;12.50;;;;;;;26.68;48.50;100257.36;127927;1101;22406;-79
2021/06/29 06:01:55;;;;;;;14.95;13.25;;;;;;;27.08;47.02;100266.39;127900;1101;24533;-76
2021/06/29 06:04:26;;;;;;;14.23;12.25;;;;;;;27.42;46.01;100265.67;127967;1101;22660;-77
2021/06/29 06:06:55;;;;;;;15.80;13.78;;;;;;;27.76;45.31;100268.45;127903;1101;22458;-77
2021/06/29 06:09:25;;;;;;;14.75;11.63;;;;;;;28.13;44.74;100275.17;127427;1101;24295;-78
2021/06/29 06:11:55;;;;;;;15.10;12.03;;;;;;;28.47;44.16;100263.44;127574;1101;24238;-78
2021/06/29 06:14:25;;;;;;;16.70;11.87;;;;;;;28.81;43.39;100260.57;127419;1101;22407;-78
2021/06/29 06:16:55;;;;;;;14.18;11.30;;;;;;;29.12;42.72;100262.91;127437;1101;22850;-77
2021/06/29 06:19:25;;;;;;;13.73;11.10;;;;;;;29.38;41.76;100266.88;127483;1101;22408;-77
2021/06/29 06:21:55;;;;;;;14.43;11.07;;;;;;;29.67;41.11;100279.53;127430;1101;22407;-78
2021/06/29 06:24:25;;;;;;;13.78;11.25;;;;;;;29.95;40.67;100280.41;127436;1101;22614;-78
2021/06/29 06:26:55;;;;;;;15.20;10.60;;;;;;;30.23;40.00;100284.85;127517;1098;22497;-77
2021/06/29 06:29:25;;;;;;;11.25;9.80;;;;;;;30.49;38.79;100284.38;127948;1098;22465;-77
2021/06/29 06:31:54;;;;;;;12.60;9.48;;;;;;;30.71;38.44;100276.27;127908;1098;22487;-77
2021/06/29 06:34:24;;;;;;;14.98;9.28;;;;;;;30.88;37.85;100272.95;127950;1098;22369;-77
2021/06/29 06:36:54;;;;;;;9.33;8.25;;;;;;;31.11;37.01;100278.47;127900;1098;22341;-78
2021/06/29 06:39:24;;;;;;;;;;;;;;;31.37;35.86;100268.62;128006;1097;22401;-77
2021/06/29 06:41:53;;;;;;;16.15;7.85;;;;;;;31.57;35.96;100280.17;127984;1098;22398;-77
2021/06/29 06:44:24;;;;;;;10.60;8.35;;;;;;;31.75;35.33;100268.23;127947;1098;22479;-78
2021/06/29 06:46:54;;;;;;;8.80;7.15;;;;;;;31.85;34.25;100270.70;127990;1098;22397;-77
2021/06/29 06:49:24;;;;;;;17.53;9.08;;;;;;;32.04;34.73;100269.73;127931;1098;23238;-77
2021/06/29 06:51:54;;;;;;;12.18;8.13;;;;;;;32.22;33.68;100263.21;128015;1098;23154;-77
2021/06/29 06:54:24;;;;;;;10.48;7.03;;;;;;;32.24;32.96;100263.72;127987;1098;22393;-78
2021/06/29 06:56:54;;;;;;;6.37;5.77;;;;;;;32.29;32.21;100262.76;127964;1098;22827;-77
2021/06/29 06:59:24;;;;;;;6.05;5.45;;;;;;;32.35;32.15;100267.77;127987;1098;23160;-78
2021/06/29 07:01:54;;;;;;;8.03;5.87;;;;;;;32.40;31.49;100255.10;128005;1098;22401;-78
2021/06/29 07:04:26;;;;;;;5.68;4.73;;;;;;;32.51;31.36;100253.71;127943;1098;22388;-77
2021/06/29 07:06:59;;;;;;;7.18;5.53;;;;;;;32.68;31.09;100259.22;127967;1098;23772;-78
2021/06/29 07:09:29;;;;;;;23.70;6.03;;;;;;;32.80;30.67;100255.88;128004;1098;22729;-77
2021/06/29 07:12:01;;;;;;;8.50;4.83;;;;;;;32.87;30.71;100253.48;128050;1098;22402;-80
2021/06/29 07:14:31;;;;;;;22.60;8.33;;;;;;;32.88;30.43;100252.34;128024;1098;22407;-84
2021/06/29 07:17:00;;;;;;;6.45;4.58;;;;;;;32.88;30.29;100254.28;127977;1098;22398;-80
2021/06/29 07:19:31;;;;;;;7.10;4.80;;;;;;;32.95;29.84;100254.61;127958;1098;24326;-80
2021/06/29 07:22:00;;;;;;;;;;;;;;;32.99;29.97;100250.13;128005;1098;22455;-79
2021/06/29 07:24:33;;;;;;;7.18;4.73;;;;;;;33.04;29.79;100253.52;128051;1098;21363;-80
2021/06/29 07:27:05;;;;;;;7.13;4.30;;;;;;;33.14;29.78;100259.81;128035;1098;23155;-80
2021/06/29 07:29:36;;;;;;;5.08;4.58;;;;;;;33.21;29.56;100249.98;128019;1098;22379;-81
2021/06/29 07:32:06;;;;;;;5.83;5.03;;;;;;;33.45;29.82;100252.22;127979;1098;22446;-80
2021/06/29 07:34:36;;;;;;;5.25;3.85;;;;;;;33.63;28.80;100249.52;127969;1098;22382;-78
2021/06/29 07:37:07;;;;;;;3.95;3.48;;;;;;;33.66;28.22;100246.92;127974;1098;22391;-78
2021/06/29 07:39:37;;;;;;;4.85;2.80;;;;;;;33.72;27.60;100244.80;128052;1098;22378;-77
2021/06/29 07:42:07;;;;;;;4.90;3.23;;;;;;;33.88;27.05;100234.13;128122;1097;22382;-77
2021/06/29 07:44:37;;;;;;;6.03;3.00;;;;;;;33.94;26.27;100241.84;127997;1098;24819;-79
2021/06/29 07:47:06;;;;;;;5.43;3.23;;;;;;;33.95;26.21;100248.13;128078;1098;22388;-78
2021/06/29 07:49:39;;;;;;;6.10;3.18;;;;;;;33.95;25.79;100243.44;128170;1098;22388;-79
2021/06/29 07:52:12;;;;;;;22.73;7.20;;;;;;;34.00;26.39;100228.77;128093;1098;22355;-78
2021/06/29 07:54:41;;;;;;;3.08;2.70;;;;;;;34.07;25.53;100236.52;128263;1098;22376;-78
2021/06/29 07:57:11;;;;;;;3.83;2.80;;;;;;;33.95;25.21;100235.22;128042;1098;22368;-77
2021/06/29 07:59:40;;;;;;;;;;;;;;;33.81;24.72;100244.78;128071;1098;23341;-78
2021/06/29 08:02:10;;;;;;;3.03;1.93;;;;;;;33.77;24.58;100236.42;127978;1098;22385;-78
2021/06/29 08:04:42;;;;;;;2.73;2.53;;;;;;;33.70;24.98;100241.59;128067;1098;23170;-77
2021/06/29 08:07:12;;;;;;;4.00;2.40;;;;;;;33.70;24.84;100244.34;127997;1098;22386;-76
2021/06/29 08:09:42;;;;;;;3.38;2.03;;;;;;;33.66;24.70;100237.91;127978;1098;22401;-77
2021/06/29 08:12:18;;;;;;;3.78;2.50;;;;;;;33.67;24.96;100240.31;127960;1098;23256;-77
2021/06/29 08:14:48;;;;;;;5.20;2.43;;;;;;;33.82;24.32;100243.64;127980;1098;22404;-77
2021/06/29 08:17:20;;;;;;;2.60;2.15;;;;;;;33.86;24.48;100242.69;127932;1098;23151;-77
2021/06/29 08:19:51;;;;;;;2.28;2.03;;;;;;;33.94;23.76;100236.36;128046;1098;23147;-76
2021/06/29 08:22:22;;;;;;;11.07;3.57;;;;;;;34.04;24.14;100246.20;128099;1098;22419;-77
2021/06/29 08:24:52;;;;;;;6.05;3.43;;;;;;;34.05;24.09;100231.34;128025;1098;22386;-77
2021/06/29 08:27:22;;;;;;;5.30;2.45;;;;;;;34.00;23.65;100237.00;128081;1098;22406;-78
2021/06/29 08:29:53;;;;;;;3.40;3.10;;;;;;;33.94;24.33;100233.63;128003;1098;22503;-78
2021/06/29 08:32:25;;;;;;;3.23;2.60;;;;;;;34.02;24.52;100233.95;127999;1098;24592;-77
2021/06/29 08:34:55;;;;;;;3.20;2.53;;;;;;;34.04;24.22;100242.66;128053;1098;22419;-76
2021/06/29 08:37:25;;;;;;;6.37;2.50;;;;;;;33.88;23.86;100237.66;127985;1098;22461;-78
2021/06/29 08:39:55;;;;;;;3.53;2.90;;;;;;;33.85;24.30;100235.58;128004;1098;22823;-78
2021/06/29 08:42:25;;;;;;;4.03;2.60;;;;;;;33.98;24.12;100233.77;128033;1098;22397;-78
2021/06/29 08:44:55;;;;;;;2.63;2.43;;;;;;;34.12;24.06;100237.16;128002;1098;24274;-77
2021/06/29 08:47:25;;;;;;;2.58;2.28;;;;;;;34.17;23.75;100231.47;128028;1098;22399;-78
2021/06/29 08:49:55;;;;;;;3.65;2.88;;;;;;;34.23;24.01;100234.05;128023;1098;22113;-77
2021/06/29 08:52:25;;;;;;;7.10;2.50;;;;;;;34.26;23.98;100241.61;128008;1098;22439;-78
2021/06/29 08:54:57;;;;;;;2.50;1.98;;;;;;;34.32;23.39;100238.35;127995;1098;23277;-78
2021/06/29 08:57:27;;;;;;;4.80;2.63;;;;;;;34.31;23.56;100242.20;128024;1098;22391;-78
2021/06/29 08:59:58;;;;;;;;;;;;;;;34.01;22.88;100241.37;128018;1101;22797;-78
2021/06/29 09:02:29;;;;;;;4.78;3.10;;;;;;;33.72;23.67;100245.63;127986;1101;23010;-77
2021/06/29 09:04:59;;;;;;;5.53;2.88;;;;;;;33.74;23.76;100237.07;127949;1101;25845;-78
2021/06/29 09:07:31;;;;;;;;;;;;;;;33.68;22.72;100235.63;128034;1100;22835;-77
2021/06/29 09:10:04;;;;;;;4.28;2.60;;;;;;;33.63;24.02;100238.55;128001;1099;22118;-77
2021/06/29 09:12:51;;;;;;;3.28;2.53;;;;;;;33.64;23.24;100230.00;128025;1101;22411;-78
2021/06/29 09:15:30;;;;;;;4.55;2.33;;;;;;;33.60;23.09;100234.52;127566;1101;25168;-78
2021/06/29 09:18:06;;;;;;;4.15;2.38;;;;;;;33.50;23.83;100223.91;127966;1098;23164;-77
2021/06/29 09:20:48;;;;;;;5.20;2.30;;;;;;;33.68;24.01;100217.25;128014;1096;22416;-76
2021/06/29 09:23:48;;;;;;;7.30;2.58;;;;;;;33.92;23.96;100208.50;127982;1097;22386;-78
2021/06/29 09:26:24;;;;;;;3.40;2.70;;;;;;;34.09;23.72;100198.60;127944;1100;23205;-77
2021/06/29 09:28:57;;;;;;;3.13;2.08;;;;;;;34.15;23.14;100202.77;128004;1101;24547;-77
2021/06/29 09:31:34;;;;;;;3.10;2.40;;;;;;;34.05;23.59;100205.88;128049;1101;22411;-77
2021/06/29 09:34:07;;;;;;;2.55;1.50;;;;;;;33.83;22.08;100194.02;128053;1101;22421;-78
2021/06/29 09:36:42;;;;;;;4.30;2.10;;;;;;;33.58;21.83;100195.69;127965;1101;22414;-78
2021/06/29 09:39:14;;;;;;;2.53;2.13;;;;;;;33.45;22.30;100196.66;127977;1101;22475;-77
2021/06/29 09:41:47;;;;;;;3.40;2.30;;;;;;;33.40;22.28;100189.42;127883;1101;22507;-78
2021/06/29 09:44:22;;;;;;;6.45;2.60;;;;;;;33.44;22.29;100184.10;127568;1101;22392;-78
2021/06/29 09:46:52;;;;;;;3.95;2.53;;;;;;;33.48;22.45;100182.31;127952;1101;22376;-77
2021/06/29 09:49:28;;;;;;;3.17;2.37;;;;;;;33.57;22.51;100179.59;127985;1100;22385;-77
2021/06/29 09:52:04;;;;;;;5.68;2.25;;;;;;;33.49;22.65;100184.77;128009;1101;25153;-77
2021/06/29 09:54:36;;;;;;;2.93;2.63;;;;;;;33.46;23.20;100181.86;127984;1101;22371;-78
2021/06/29 09:57:24;;;;;;;6.38;2.63;;;;;;;33.55;23.38;100182.64;127744;1101;22377;-78
2021/06/29 09:59:54;;;;;;;9.90;3.00;;;;;;;33.46;23.59;100179.12;128300;1098;22398;-77
2021/06/29 10:02:31;;;;;;;2.43;2.13;;;;;;;33.44;23.47;100175.89;128030;1098;22407;-77
2021/06/29 10:05:22;;;;;;;2.65;2.30;;;;;;;33.29;23.53;100169.00;128043;1098;22405;-77
2021/06/29 10:07:52;;;;;;;2.53;2.23;;;;;;;33.15;22.76;100163.68;128068;1098;24543;-78
2021/06/29 10:10:22;;;;;;;2.20;2.00;;;;;;;32.87;22.96;100156.92;127982;1098;22414;-77
2021/06/29 10:12:52;;;;;;;4.25;2.03;;;;;;;32.67;23.46;100153.70;128011;1098;22414;-77
2021/06/29 10:15:22;;;;;;;3.48;2.03;;;;;;;32.46;23.26;100164.45;128024;1098;24235;-77
2021/06/29 10:17:51;;;;;;;5.77;5.23;;;;;;;32.20;23.67;100150.69;128004;1098;22390;-78
2021/06/29 10:20:26;;;;;;;7.30;1.83;;;;;;;31.99;23.78;100145.02;128022;1098;26056;-78
2021/06/29 10:22:57;;;;;;;2.80;1.90;;;;;;;31.83;23.72;100149.25;128020;1098;22383;-78
2021/06/29 10:25:27;;;;;;;;;;;;;;;31.54;23.14;100150.55;128166;1098;22396;-79
2021/06/29 10:27:57;;;;;;;5.80;2.00;;;;;;;31.44;23.45;100150.01;128287;1098;21269;-79
2021/06/29 10:30:29;;;;;;;4.83;1.98;;;;;;;31.44;23.04;100137.16;128296;1097;23251;-79
2021/06/29 10:33:02;;;;;;;2.55;2.03;;;;;;;31.48;23.32;100134.61;128320;1098;22417;-78
2021/06/29 10:35:32;;;;;;;3.60;2.03;;;;;;;31.45;23.78;100124.31;128414;1098;22480;-79
2021/06/29 10:38:02;;;;;;;2.50;2.30;;;;;;;31.44;23.99;100136.36;128375;1098;24215;-79
2021/06/29 10:40:36;;;;;;;2.23;2.03;;;;;;;31.32;24.15;100132.30;128513;1098;24560;-78
2021/06/29 10:43:06;;;;;;;4.38;2.28;;;;;;;31.23;24.42;100133.33;128223;1098;22411;-76
2021/06/29 10:45:39;;;;;;;4.05;2.20;;;;;;;31.15;24.58;100132.13;128230;1098;22399;-78
2021/06/29 10:48:24;;;;;;;4.40;2.57;;;;;;;31.17;24.97;100129.91;128341;1098;22392;-78
2021/06/29 10:50:57;;;;;;;3.50;3.15;;;;;;;31.11;24.80;100123.76;128232;1098;25156;-77
2021/06/29 10:53:42;;;;;;;2.83;2.10;;;;;;;31.08;24.93;100120.84;128247;1098;22394;-78
2021/06/29 10:56:19;;;;;;;3.37;2.10;;;;;;;31.13;24.79;100118.01;128237;1098;24225;-77
2021/06/29 10:58:51;;;;;;;3.15;2.73;;;;;;;31.16;24.78;100111.93;128133;1098;22412;-77
2021/06/29 11:01:34;;;;;;;2.85;2.28;;;;;;;31.06;25.18;100109.46;128103;1098;22408;-77
2021/06/29 11:04:05;;;;;;;3.55;3.25;;;;;;;30.98;25.39;100104.73;128081;1098;22464;-77
2021/06/29 11:06:45;;;;;;;4.05;2.43;;;;;;;30.98;25.14;100105.53;127984;1098;22402;-78
2021/06/29 11:09:21;;;;;;;3.00;2.10;;;;;;;31.00;25.06;100114.23;128052;1098;22400;-76
2021/06/29 11:12:23;;;;;;;3.48;1.98;;;;;;;30.87;24.86;100099.53;128048;1097;22497;-76
2021/06/29 11:14:56;;;;;;;2.18;1.98;;;;;;;30.76;25.00;100098.17;128080;1098;22411;-76
2021/06/29 11:17:54;;;;;;;3.45;1.90;;;;;;;30.68;25.09;100101.58;128014;1098;24559;-76
2021/06/29 11:20:37;;;;;;;2.98;2.30;;;;;;;30.63;25.05;100088.09;128025;1098;22808;-76
2021/06/29 11:23:15;;;;;;;9.88;4.00;;;;;;;30.66;25.51;100095.66;127986;1098;22361;-75
2021/06/29 11:25:53;;;;;;;4.70;2.90;;;;;;;30.68;25.27;100090.67;128070;1098;22391;-75
2021/06/29 11:29:00;;;;;;;4.83;2.73;;;;;;;30.73;25.37;100087.05;127973;1098;22410;-75
2021/06/29 11:31:31;;;;;;;3.25;2.15;;;;;;;30.67;25.31;100086.34;127981;1098;22397;-76
2021/06/29 11:34:04;;;;;;;6.53;2.90;;;;;;;30.60;24.96;100080.52;127988;1101;22390;-74
2021/06/29 11:36:45;;;;;;;4.15;2.23;;;;;;;30.63;25.12;100085.36;127942;1101;24641;-76
2021/06/29 11:39:18;;;;;;;5.35;2.35;;;;;;;30.52;25.16;100067.61;127993;1101;22455;-76
2021/06/29 11:42:08;;;;;;;3.90;2.28;;;;;;;30.37;25.27;100066.85;127975;1101;23180;-76
2021/06/29 11:44:45;;;;;;;4.78;2.25;;;;;;;30.23;25.81;100061.44;128000;1101;24966;-75
2021/06/29 11:47:22;;;;;;;3.13;2.30;;;;;;;30.09;25.53;100068.80;127974;1100;24218;-75
2021/06/29 11:50:00;;;;;;;4.98;1.95;;;;;;;30.08;26.02;100071.81;127986;1101;22393;-75
2021/06/29 11:52:36;;;;;;;4.10;2.00;;;;;;;30.15;25.80;100073.02;128078;1098;22415;-75
2021/06/29 11:55:18;;;;;;;3.20;1.93;;;;;;;30.18;25.60;100060.70;128100;1098;22394;-74
2021/06/29 11:57:53;;;;;;;4.68;2.58;;;;;;;30.25;25.67;100058.39;128045;1097;22494;-75
2021/06/29 12:00:30;;;;;;;3.50;1.90;;;;;;;30.31;25.35;100051.72;127964;1098;22414;-75
2021/06/29 12:03:13;;;;;;;4.77;2.00;;;;;;;30.30;25.32;100050.13;128000;1098;24563;-75
2021/06/29 12:05:43;;;;;;;3.15;1.83;;;;;;;30.22;25.53;100048.11;128158;1098;22395;-75
2021/06/29 12:08:15;;;;;;;7.48;1.80;;;;;;;30.18;25.44;100042.47;128074;1098;22407;-76
2021/06/29 12:10:50;;;;;;;3.98;1.73;;;;;;;30.10;25.58;100040.45;128127;1098;22396;-75
2021/06/29 12:13:25;;;;;;;3.85;2.00;;;;;;;29.98;25.73;100035.51;128099;1098;22407;-76
2021/06/29 12:15:57;;;;;;;4.03;2.15;;;;;;;29.95;25.88;100032.59;128089;1098;22410;-75
2021/06/29 12:18:29;;;;;;;3.65;2.33;;;;;;;29.96;25.91;100023.33;128070;1098;22399;-75
2021/06/29 12:21:02;;;;;;;4.88;2.78;;;;;;;29.98;25.83;100023.81;128113;1098;22409;-75
2021/06/29 12:23:36;;;;;;;3.25;2.10;;;;;;;30.01;25.82;100015.84;128067;1096;22414;-79
2021/06/29 12:26:12;;;;;;;4.65;1.83;;;;;;;30.04;26.09;100014.43;128072;1098;22395;-79
2021/06/29 12:28:42;;;;;;;2.28;1.53;;;;;;;30.05;26.24;100007.86;128106;1098;24214;-79
2021/06/29 12:31:14;;;;;;;2.90;2.10;;;;;;;30.03;25.84;100006.58;128119;1098;22394;-80
2021/06/29 12:33:50;;;;;;;3.58;2.30;;;;;;;30.03;26.20;100004.66;128201;1098;22410;-78
2021/06/29 12:36:23;;;;;;;3.95;2.25;;;;;;;30.05;25.81;100002.41;128091;1098;22395;-78
2021/06/29 12:39:01;;;;;;;2.65;2.00;;;;;;;30.04;25.88;99997.28;128180;1098;22455;-78
2021/06/29 12:41:36;;;;;;;3.10;2.13;;;;;;;30.01;25.71;99994.05;128125;1098;22394;-79
2021/06/29 12:44:10;;;;;;;2.65;1.95;;;;;;;29.98;26.09;99985.69;128029;1098;23262;-78
2021/06/29 12:46:44;;;;;;;1.88;1.40;;;;;;;29.99;26.00;99990.02;128006;1101;23145;-79
2021/06/29 12:49:24;;;;;;;2.65;1.78;;;;;;;29.93;25.66;99975.73;127768;1101;22398;-78
2021/06/29 12:52:11;;;;;;;5.63;2.10;;;;;;;29.95;25.94;99978.13;128033;1101;22403;-78
2021/06/29 12:54:47;;;;;;;2.55;1.93;;;;;;;29.98;25.89;99978.31;127955;1101;22460;-78
2021/06/29 12:57:17;;;;;;;5.23;2.00;;;;;;;30.00;25.96;99976.11;127986;1101;22396;-78
2021/06/29 12:59:47;;;;;;;1.98;1.78;;;;;;;30.01;25.92;99979.63;127655;1101;22441;-79
2021/06/29 13:02:22;;;;;;;2.10;1.65;;;;;;;30.03;25.69;99971.17;127675;1101;22414;-77
2021/06/29 13:04:59;;;;;;;3.43;1.45;;;;;;;29.98;25.50;99978.31;127713;1101;22471;-77
2021/06/29 13:07:35;;;;;;;3.05;2.05;;;;;;;29.92;25.49;99955.03;128116;1100;22787;-75
2021/06/29 13:10:09;;;;;;;9.13;2.60;;;;;;;29.97;25.74;99957.66;127695;1101;23357;-77
2021/06/29 13:12:38;;;;;;;2.43;2.05;;;;;;;30.04;25.64;99957.23;127554;1101;22382;-77
2021/06/29 13:15:14;;;;;;;3.43;2.00;;;;;;;30.09;25.53;99953.58;127581;1101;24559;-77
2021/06/29 13:17:55;;;;;;;4.73;2.30;;;;;;;30.13;25.57;99957.31;127679;1101;22689;-78
2021/06/29 13:20:29;;;;;;;3.48;1.80;;;;;;;30.10;25.65;99950.56;128011;1101;22425;-78
2021/06/29 13:23:10;;;;;;;5.30;2.28;;;;;;;30.03;25.18;99957.55;127765;1101;22418;-77
2021/06/29 13:25:44;;;;;;;2.63;1.73;;;;;;;29.93;25.18;99948.49;127997;1100;22411;-78
2021/06/29 13:28:34;;;;;;;3.60;1.90;;;;;;;29.92;25.42;99938.69;128008;1098;22397;-77
2021/06/29 13:31:04;;;;;;;3.83;1.75;;;;;;;30.03;25.63;99942.02;127998;1098;22694;-77
2021/06/29 13:33:39;;;;;;;2.45;1.50;;;;;;;30.13;25.68;99932.80;127959;1098;24272;-80
2021/06/29 13:36:10;;;;;;;3.20;2.33;;;;;;;30.14;25.29;99928.95;127932;1098;24536;-78
2021/06/29 13:38:39;;;;;;;6.33;1.90;;;;;;;30.15;25.37;99936.80;127997;1098;22407;-77
2021/06/29 13:41:09;;;;;;;3.33;1.90;;;;;;;30.17;25.33;99931.87;128018;1098;25197;-78
2021/06/29 13:43:44;;;;;;;3.80;2.00;;;;;;;30.22;25.50;99923.62;127974;1098;25071;-77
2021/06/29 13:46:18;;;;;;;3.25;2.33;;;;;;;30.29;25.80;99925.91;128022;1096;22441;-78
2021/06/29 13:48:51;;;;;;;3.28;2.05;;;;;;;30.34;25.82;99925.77;128009;1098;25112;-79
2021/06/29 13:51:29;;;;;;;2.23;1.88;;;;;;;30.36;25.79;99931.73;128072;1098;22408;-77
2021/06/29 13:54:22;;;;;;;2.50;1.70;;;;;;;30.34;25.44;99923.05;128202;1098;22914;-77
2021/06/29 13:56:52;;;;;;;2.83;1.90;;;;;;;30.30;25.59;99922.06;127995;1098;22391;-77
2021/06/29 13:59:41;;;;;;;3.15;2.00;;;;;;;30.29;25.26;99916.91;128003;1096;22455;-77
2021/06/29 14:02:40;;;;;;;5.30;2.15;;;;;;;30.20;25.55;99917.66;127949;1098;22510;-77
2021/06/29 14:05:10;;;;;;;7.28;2.75;;;;;;;30.22;25.28;99911.89;128102;1098;22578;-77
2021/06/29 14:07:39;;;;;;;3.38;1.98;;;;;;;30.21;25.30;99905.64;128077;1098;22410;-77
2021/06/29 14:10:28;;;;;;;3.20;1.78;;;;;;;30.23;25.29;99899.89;128023;1098;22414;-77
2021/06/29 14:13:27;;;;;;;2.58;1.80;;;;;;;30.18;25.24;99891.80;128084;1098;22394;-77
2021/06/29 14:16:00;;;;;;;3.43;2.15;;;;;;;30.17;25.09;99895.66;128039;1098;22404;-78
2021/06/29 14:18:32;;;;;;;3.45;2.70;;;;;;;30.17;25.12;99888.28;128044;1098;22405;-78
2021/06/29 14:21:20;;;;;;;4.63;2.15;;;;;;;30.13;24.95;99884.57;128067;1098;24554;-77
2021/06/29 14:23:54;;;;;;;2.13;1.70;;;;;;;30.04;25.21;99882.89;128100;1098;22395;-78
2021/06/29 14:26:26;;;;;;;3.68;1.88;;;;;;;30.00;25.03;99874.55;128093;1097;22399;-78
2021/06/29 14:28:59;;;;;;;2.45;2.25;;;;;;;29.99;25.34;99878.36;128094;1098;22392;-77
2021/06/29 14:31:29;;;;;;;6.17;2.33;;;;;;;30.01;25.53;99868.77;128048;1098;22469;-78
2021/06/29 14:34:00;;;;;;;3.63;2.43;;;;;;;30.00;25.79;99872.62;128088;1098;22394;-78
2021/06/29 14:36:34;;;;;;;3.43;2.83;;;;;;;29.95;25.66;99872.72;128032;1097;22396;-78
2021/06/29 14:39:09;;;;;;;4.88;3.05;;;;;;;29.93;25.98;99850.46;128202;1098;22401;-77
2021/06/29 14:41:42;;;;;;;3.18;2.35;;;;;;;29.94;26.12;99851.27;128073;1098;22361;-77
2021/06/29 14:44:14;;;;;;;5.30;2.50;;;;;;;29.99;26.52;99842.95;128070;1098;22497;-77
2021/06/29 14:46:44;;;;;;;2.83;2.15;;;;;;;30.06;26.58;99846.08;127986;1101;25023;-77
2021/06/29 14:49:14;;;;;;;4.73;2.43;;;;;;;30.05;26.24;99839.00;128016;1101;22398;-78